sensor_id;sensor_type;location;lat;lon;timestamp;pressure;altitude;pressure_sealevel;temperature;humidity
34931;BME280;21134;49.646;8.560;2023-02-19T00:01:45;100984.78;;;10.39;85.20
34931;BME280;21134;49.646;8.560;2023-02-19T00:04:13;100978.88;;;10.46;84.98
34931;BME280;21134;49.646;8.560;2023-02-19T00:06:41;100966.94;;;10.47;85.43
34931;BME280;21134;49.646;8.560;2023-02-19T00:09:09;100977.88;;;10.29;86.67
34931;BME280;21134;49.646;8.560;2023-02-19T00:11:37;100993.31;;;10.38;85.84
34931;BME280;21134;49.646;8.560;2023-02-19T00:14:04;100967.72;;;10.40;85.65
34931;BME280;21134;49.646;8.560;2023-02-19T00:16:33;100980.44;;;10.28;85.83
34931;BME280;21134;49.646;8.560;2023-02-19T00:19:01;100972.75;;;10.26;86.36
34931;BME280;21134;49.646;8.560;2023-02-19T00:21:28;100977.84;;;10.26;85.77
34931;BME280;21134;49.646;8.560;2023-02-19T00:23:56;100970.34;;;10.47;84.61
34931;BME280;21134;49.646;8.560;2023-02-19T00:26:23;100977.06;;;10.32;85.93
34931;BME280;21134;49.646;8.560;2023-02-19T00:28:53;100970.13;;;10.21;86.74
34931;BME280;21134;49.646;8.560;2023-02-19T00:31:22;100978.75;;;10.28;85.68
34931;BME280;21134;49.646;8.560;2023-02-19T00:33:51;100977.09;;;10.35;85.75
34931;BME280;21134;49.646;8.560;2023-02-19T00:36:18;100982.16;;;10.33;85.05
34931;BME280;21134;49.646;8.560;2023-02-19T00:38:45;100971.91;;;10.30;86.25
34931;BME280;21134;49.646;8.560;2023-02-19T00:41:13;100969.47;;;10.41;84.65
34931;BME280;21134;49.646;8.560;2023-02-19T00:43:48;100962.59;;;10.35;86.25
34931;BME280;21134;49.646;8.560;2023-02-19T00:46:17;100963.50;;;10.40;85.18
34931;BME280;21134;49.646;8.560;2023-02-19T00:48:44;100969.47;;;10.45;85.29
34931;BME280;21134;49.646;8.560;2023-02-19T00:51:10;100964.25;;;10.30;85.78
34931;BME280;21134;49.646;8.560;2023-02-19T00:53:37;100965.00;;;10.20;86.73
34931;BME280;21134;49.646;8.560;2023-02-19T00:56:04;100962.50;;;10.26;86.41
34931;BME280;21134;49.646;8.560;2023-02-19T00:58:31;100963.44;;;10.36;85.99
34931;BME280;21134;49.646;8.560;2023-02-19T01:00:58;100965.22;;;10.46;85.09
34931;BME280;21134;49.646;8.560;2023-02-19T01:03:26;100965.91;;;10.27;86.41
34931;BME280;21134;49.646;8.560;2023-02-19T01:05:53;100973.66;;;10.31;86.40
34931;BME280;21134;49.646;8.560;2023-02-19T01:08:20;100984.72;;;10.29;86.23
34931;BME280;21134;49.646;8.560;2023-02-19T01:10:47;100987.38;;;10.44;85.54
34931;BME280;21134;49.646;8.560;2023-02-19T01:13:14;100989.03;;;10.39;86.03
34931;BME280;21134;49.646;8.560;2023-02-19T01:15:40;100983.09;;;10.41;85.72
34931;BME280;21134;49.646;8.560;2023-02-19T01:18:07;100964.31;;;10.39;86.71
34931;BME280;21134;49.646;8.560;2023-02-19T01:20:37;100937.03;;;10.40;86.56
34931;BME280;21134;49.646;8.560;2023-02-19T01:23:03;100942.16;;;10.43;86.07
34931;BME280;21134;49.646;8.560;2023-02-19T01:25:30;100943.91;;;10.44;85.40
34931;BME280;21134;49.646;8.560;2023-02-19T01:27:56;100944.69;;;10.37;86.50
34931;BME280;21134;49.646;8.560;2023-02-19T01:30:23;100948.97;;;10.38;86.25
34931;BME280;21134;49.646;8.560;2023-02-19T01:32:49;100954.84;;;10.26;86.98
34931;BME280;21134;49.646;8.560;2023-02-19T01:37:51;100956.66;;;10.42;86.92
34931;BME280;21134;49.646;8.560;2023-02-19T01:40:18;100949.00;;;10.42;87.54
34931;BME280;21134;49.646;8.560;2023-02-19T01:42:44;100953.09;;;10.25;87.53
34931;BME280;21134;49.646;8.560;2023-02-19T01:45:21;100942.88;;;10.25;87.54
34931;BME280;21134;49.646;8.560;2023-02-19T01:47:52;100948.84;;;10.25;88.17
34931;BME280;21134;49.646;8.560;2023-02-19T01:50:21;100929.28;;;10.29;88.36
34931;BME280;21134;49.646;8.560;2023-02-19T01:52:48;100933.56;;;10.32;88.38
34931;BME280;21134;49.646;8.560;2023-02-19T01:55:16;100937.69;;;10.17;88.58
34931;BME280;21134;49.646;8.560;2023-02-19T01:57:45;100937.69;;;10.17;88.89
34931;BME280;21134;49.646;8.560;2023-02-19T02:00:16;100934.28;;;10.15;90.24
34931;BME280;21134;49.646;8.560;2023-02-19T02:02:47;100930.00;;;10.16;89.40
34931;BME280;21134;49.646;8.560;2023-02-19T02:05:21;100924.09;;;10.23;88.67
34931;BME280;21134;49.646;8.560;2023-02-19T02:07:50;100923.28;;;10.27;88.81
34931;BME280;21134;49.646;8.560;2023-02-19T02:10:35;100917.19;;;10.14;89.25
34931;BME280;21134;49.646;8.560;2023-02-19T02:13:02;100908.69;;;10.12;89.38
34931;BME280;21134;49.646;8.560;2023-02-19T02:15:35;100908.66;;;10.09;90.13
34931;BME280;21134;49.646;8.560;2023-02-19T02:18:11;100900.94;;;10.05;90.32
34931;BME280;21134;49.646;8.560;2023-02-19T02:20:56;100904.28;;;9.93;90.45
34931;BME280;21134;49.646;8.560;2023-02-19T02:23:34;100906.94;;;10.07;89.95
34931;BME280;21134;49.646;8.560;2023-02-19T02:26:23;100907.81;;;10.09;89.87
34931;BME280;21134;49.646;8.560;2023-02-19T02:29:14;100901.00;;;10.12;89.58
34931;BME280;21134;49.646;8.560;2023-02-19T02:31:46;100892.50;;;10.13;89.70
34931;BME280;21134;49.646;8.560;2023-02-19T02:34:18;100900.19;;;10.15;89.68
34931;BME280;21134;49.646;8.560;2023-02-19T02:36:49;100900.94;;;10.03;90.02
34931;BME280;21134;49.646;8.560;2023-02-19T02:39:20;100887.34;;;10.09;90.09
34931;BME280;21134;49.646;8.560;2023-02-19T02:41:49;100888.19;;;10.06;90.02
34931;BME280;21134;49.646;8.560;2023-02-19T02:44:37;100894.16;;;10.10;89.63
34931;BME280;21134;49.646;8.560;2023-02-19T02:47:05;100905.97;;;9.95;90.74
34931;BME280;21134;49.646;8.560;2023-02-19T02:49:52;100903.53;;;10.08;89.58
34931;BME280;21134;49.646;8.560;2023-02-19T02:52:31;100890.72;;;10.08;90.01
34931;BME280;21134;49.646;8.560;2023-02-19T02:55:12;100894.13;;;10.08;90.27
34931;BME280;21134;49.646;8.560;2023-02-19T02:57:38;100892.47;;;10.10;89.83
34931;BME280;21134;49.646;8.560;2023-02-19T03:00:06;100897.53;;;10.04;90.17
34931;BME280;21134;49.646;8.560;2023-02-19T03:02:34;100889.88;;;10.02;90.63
34931;BME280;21134;49.646;8.560;2023-02-19T03:05:03;100880.59;;;10.15;89.82
34931;BME280;21134;49.646;8.560;2023-02-19T03:07:52;100886.56;;;10.19;89.69
34931;BME280;21134;49.646;8.560;2023-02-19T03:10:25;100888.13;;;10.01;90.45
34931;BME280;21134;49.646;8.560;2023-02-19T03:12:55;100880.44;;;9.97;91.26
34931;BME280;21134;49.646;8.560;2023-02-19T03:15:44;100875.31;;;9.98;91.43
34931;BME280;21134;49.646;8.560;2023-02-19T03:18:44;100867.69;;;10.00;91.03
34931;BME280;21134;49.646;8.560;2023-02-19T03:21:31;100871.88;;;9.95;91.17
34931;BME280;21134;49.646;8.560;2023-02-19T03:24:00;100880.47;;;10.01;91.13
34931;BME280;21134;49.646;8.560;2023-02-19T03:26:46;100873.59;;;9.93;91.33
34931;BME280;21134;49.646;8.560;2023-02-19T03:29:19;100873.63;;;9.96;91.02
34931;BME280;21134;49.646;8.560;2023-02-19T03:31:52;100862.53;;;9.95;91.05
34931;BME280;21134;49.646;8.560;2023-02-19T03:34:25;100861.69;;;9.98;91.48
34931;BME280;21134;49.646;8.560;2023-02-19T03:36:56;100874.41;;;9.92;91.58
34931;BME280;21134;49.646;8.560;2023-02-19T03:39:25;100872.75;;;9.94;91.66
34931;BME280;21134;49.646;8.560;2023-02-19T03:41:58;100864.97;;;9.80;92.56
34931;BME280;21134;49.646;8.560;2023-02-19T03:44:32;100875.28;;;9.89;91.83
34931;BME280;21134;49.646;8.560;2023-02-19T03:47:04;100882.91;;;9.83;93.06
34931;BME280;21134;49.646;8.560;2023-02-19T03:49:41;100869.19;;;9.73;93.08
34931;BME280;21134;49.646;8.560;2023-02-19T03:52:14;100869.22;;;9.76;93.51
34931;BME280;21134;49.646;8.560;2023-02-19T03:54:47;100880.38;;;9.88;92.93
34931;BME280;21134;49.646;8.560;2023-02-19T03:57:18;100884.56;;;9.81;92.31
34931;BME280;21134;49.646;8.560;2023-02-19T03:59:49;100889.69;;;9.86;93.07
34931;BME280;21134;49.646;8.560;2023-02-19T04:02:25;100891.34;;;9.77;92.74
34931;BME280;21134;49.646;8.560;2023-02-19T04:05:01;100904.91;;;9.69;93.56
34931;BME280;21134;49.646;8.560;2023-02-19T04:07:34;100910.91;;;9.74;93.34
34931;BME280;21134;49.646;8.560;2023-02-19T04:10:03;100913.50;;;9.77;92.91
34931;BME280;21134;49.646;8.560;2023-02-19T04:12:32;100911.75;;;9.73;93.63
34931;BME280;21134;49.646;8.560;2023-02-19T04:15:05;100909.19;;;9.71;93.36
34931;BME280;21134;49.646;8.560;2023-02-19T04:17:36;100909.28;;;9.81;93.25
34931;BME280;21134;49.646;8.560;2023-02-19T04:20:07;100907.53;;;9.78;93.35
34931;BME280;21134;49.646;8.560;2023-02-19T04:22:36;100893.91;;;9.79;94.08
34931;BME280;21134;49.646;8.560;2023-02-19T04:25:04;100888.03;;;9.88;94.45
34931;BME280;21134;49.646;8.560;2023-02-19T04:27:31;100894.06;;;9.97;94.36
34931;BME280;21134;49.646;8.560;2023-02-19T04:30:00;100898.19;;;9.80;95.77
34931;BME280;21134;49.646;8.560;2023-02-19T04:32:27;100893.91;;;9.77;96.29
34931;BME280;21134;49.646;8.560;2023-02-19T04:34:53;100888.72;;;9.70;96.97
34931;BME280;21134;49.646;8.560;2023-02-19T04:37:21;100883.63;;;9.71;96.73
34931;BME280;21134;49.646;8.560;2023-02-19T04:39:47;100887.06;;;9.73;96.05
34931;BME280;21134;49.646;8.560;2023-02-19T04:42:14;100875.94;;;9.67;97.13
34931;BME280;21134;49.646;8.560;2023-02-19T04:44:40;100872.53;;;9.69;96.76
34931;BME280;21134;49.646;8.560;2023-02-19T04:47:07;100878.41;;;9.59;96.64
34931;BME280;21134;49.646;8.560;2023-02-19T04:49:33;100890.34;;;9.60;96.12
34931;BME280;21134;49.646;8.560;2023-02-19T04:52:00;100895.50;;;9.65;95.67
34931;BME280;21134;49.646;8.560;2023-02-19T04:54:28;100892.84;;;9.57;96.25
34931;BME280;21134;49.646;8.560;2023-02-19T04:56:54;100885.09;;;9.46;96.75
34931;BME280;21134;49.646;8.560;2023-02-19T04:59:21;100897.94;;;9.51;96.24
34931;BME280;21134;49.646;8.560;2023-02-19T05:01:48;100900.59;;;9.66;95.68
34931;BME280;21134;49.646;8.560;2023-02-19T05:04:14;100895.50;;;9.66;95.72
34931;BME280;21134;49.646;8.560;2023-02-19T05:06:41;100901.47;;;9.65;95.90
34931;BME280;21134;49.646;8.560;2023-02-19T05:09:07;100910.03;;;9.72;95.24
34931;BME280;21134;49.646;8.560;2023-02-19T05:11:35;100909.16;;;9.67;95.75
34931;BME280;21134;49.646;8.560;2023-02-19T05:14:01;100909.09;;;9.61;96.72
34931;BME280;21134;49.646;8.560;2023-02-19T05:16:28;100906.59;;;9.70;96.33
34931;BME280;21134;49.646;8.560;2023-02-19T05:18:55;100917.59;;;9.58;96.46
34931;BME280;21134;49.646;8.560;2023-02-19T05:21:21;100916.81;;;9.67;95.19
34931;BME280;21134;49.646;8.560;2023-02-19T05:23:47;100921.03;;;9.63;95.60
34931;BME280;21134;49.646;8.560;2023-02-19T05:26:16;100925.38;;;9.70;94.50
34931;BME280;21134;49.646;8.560;2023-02-19T05:28:44;100933.78;;;9.63;95.38
34931;BME280;21134;49.646;8.560;2023-02-19T05:31:11;100945.78;;;9.69;95.26
34931;BME280;21134;49.646;8.560;2023-02-19T05:33:38;100935.59;;;9.72;94.62
34931;BME280;21134;49.646;8.560;2023-02-19T05:36:08;100933.06;;;9.75;94.80
34931;BME280;21134;49.646;8.560;2023-02-19T05:38:36;100932.13;;;9.65;95.91
34931;BME280;21134;49.646;8.560;2023-02-19T05:41:07;100933.06;;;9.73;96.21
34931;BME280;21134;49.646;8.560;2023-02-19T05:43:34;100933.00;;;9.67;97.49
34931;BME280;21134;49.646;8.560;2023-02-19T05:46:01;100945.81;;;9.70;98.64
34931;BME280;21134;49.646;8.560;2023-02-19T05:48:28;100944.94;;;9.67;100.00
34931;BME280;21134;49.646;8.560;2023-02-19T05:51:00;100951.66;;;9.60;100.00
34931;BME280;21134;49.646;8.560;2023-02-19T05:53:26;100943.88;;;9.48;100.00
34931;BME280;21134;49.646;8.560;2023-02-19T05:55:53;100931.94;;;9.45;100.00
34931;BME280;21134;49.646;8.560;2023-02-19T05:58:19;100925.09;;;9.43;100.00
34931;BME280;21134;49.646;8.560;2023-02-19T06:00:46;100924.13;;;9.33;100.00
34931;BME280;21134;49.646;8.560;2023-02-19T06:03:13;100940.22;;;9.27;100.00
34931;BME280;21134;49.646;8.560;2023-02-19T06:05:40;100944.41;;;9.21;100.00
34931;BME280;21134;49.646;8.560;2023-02-19T06:08:06;100962.31;;;9.22;100.00
34931;BME280;21134;49.646;8.560;2023-02-19T06:10:33;100969.84;;;9.13;100.00
34931;BME280;21134;49.646;8.560;2023-02-19T06:13:01;100970.78;;;9.21;100.00
34931;BME280;21134;49.646;8.560;2023-02-19T06:15:27;100963.88;;;9.11;100.00
34931;BME280;21134;49.646;8.560;2023-02-19T06:17:54;100974.03;;;9.08;100.00
34931;BME280;21134;49.646;8.560;2023-02-19T06:20:22;100973.19;;;9.07;100.00
34931;BME280;21134;49.646;8.560;2023-02-19T06:22:48;100973.94;;;9.02;100.00
34931;BME280;21134;49.646;8.560;2023-02-19T06:25:15;100968.97;;;9.10;100.00
34931;BME280;21134;49.646;8.560;2023-02-19T06:27:41;100973.22;;;9.12;100.00
34931;BME280;21134;49.646;8.560;2023-02-19T06:30:09;100986.66;;;8.97;100.00
34931;BME280;21134;49.646;8.560;2023-02-19T06:32:36;100994.31;;;8.97;100.00
34931;BME280;21134;49.646;8.560;2023-02-19T06:35:03;101000.28;;;8.99;100.00
34931;BME280;21134;49.646;8.560;2023-02-19T06:37:31;101006.09;;;8.89;100.00
34931;BME280;21134;49.646;8.560;2023-02-19T06:39:57;101016.31;;;8.89;100.00
34931;BME280;21134;49.646;8.560;2023-02-19T06:42:24;101006.09;;;8.88;100.00
34931;BME280;21134;49.646;8.560;2023-02-19T06:44:50;101012.88;;;8.85;100.00
34931;BME280;21134;49.646;8.560;2023-02-19T06:47:17;101013.78;;;8.91;100.00
34931;BME280;21134;49.646;8.560;2023-02-19T06:49:43;101013.75;;;8.88;100.00
34931;BME280;21134;49.646;8.560;2023-02-19T06:52:10;101016.31;;;8.88;100.00
34931;BME280;21134;49.646;8.560;2023-02-19T06:54:37;101026.50;;;8.88;100.00
34931;BME280;21134;49.646;8.560;2023-02-19T06:57:04;101029.06;;;8.88;100.00
34931;BME280;21134;49.646;8.560;2023-02-19T06:59:30;101033.28;;;8.84;100.00
34931;BME280;21134;49.646;8.560;2023-02-19T07:01:57;101033.28;;;8.84;100.00
34931;BME280;21134;49.646;8.560;2023-02-19T07:04:23;101040.88;;;8.82;100.00
34931;BME280;21134;49.646;8.560;2023-02-19T07:06:50;101044.28;;;8.81;100.00
34931;BME280;21134;49.646;8.560;2023-02-19T07:09:16;101043.47;;;8.84;100.00
34931;BME280;21134;49.646;8.560;2023-02-19T07:11:44;101046.03;;;8.84;100.00
34931;BME280;21134;49.646;8.560;2023-02-19T07:14:14;101040.94;;;8.85;100.00
34931;BME280;21134;49.646;8.560;2023-02-19T07:16:41;101041.16;;;9.01;100.00
34931;BME280;21134;49.646;8.560;2023-02-19T07:19:09;101041.19;;;9.04;100.00
34931;BME280;21134;49.646;8.560;2023-02-19T07:21:35;101042.94;;;9.08;100.00
34931;BME280;21134;49.646;8.560;2023-02-19T07:24:03;101039.47;;;9.01;100.00
34931;BME280;21134;49.646;8.560;2023-02-19T07:26:30;101037.75;;;9.02;100.00
34931;BME280;21134;49.646;8.560;2023-02-19T07:28:58;101036.16;;;9.08;100.00
34931;BME280;21134;49.646;8.560;2023-02-19T07:31:26;101050.69;;;9.13;100.00
34931;BME280;21134;49.646;8.560;2023-02-19T07:33:53;101049.13;;;9.24;100.00
34931;BME280;21134;49.646;8.560;2023-02-19T07:36:21;101044.91;;;9.27;100.00
34931;BME280;21134;49.646;8.560;2023-02-19T07:38:52;101045.72;;;9.25;100.00
34931;BME280;21134;49.646;8.560;2023-02-19T07:41:19;101048.53;;;9.43;100.00
34931;BME280;21134;49.646;8.560;2023-02-19T07:43:46;101051.84;;;9.38;100.00
34931;BME280;21134;49.646;8.560;2023-02-19T07:46:13;101056.22;;;9.45;100.00
34931;BME280;21134;49.646;8.560;2023-02-19T07:48:41;101068.09;;;9.43;100.00
34931;BME280;21134;49.646;8.560;2023-02-19T07:51:10;101074.09;;;9.45;100.00
34931;BME280;21134;49.646;8.560;2023-02-19T07:53:37;101070.78;;;9.53;100.00
34931;BME280;21134;49.646;8.560;2023-02-19T07:56:06;101069.19;;;9.63;98.81
34931;BME280;21134;49.646;8.560;2023-02-19T07:58:34;101079.38;;;9.59;99.95
34931;BME280;21134;49.646;8.560;2023-02-19T08:01:08;101069.31;;;9.71;98.07
34931;BME280;21134;49.646;8.560;2023-02-19T08:03:37;101075.34;;;9.79;97.21
34931;BME280;21134;49.646;8.560;2023-02-19T08:06:03;101086.44;;;9.78;97.40
34931;BME280;21134;49.646;8.560;2023-02-19T08:08:30;101087.38;;;9.88;96.24
34931;BME280;21134;49.646;8.560;2023-02-19T08:10:59;101092.56;;;9.95;95.30
34931;BME280;21134;49.646;8.560;2023-02-19T08:13:43;101084.97;;;10.01;94.18
34931;BME280;21134;49.646;8.560;2023-02-19T08:16:12;101082.44;;;10.03;94.30
34931;BME280;21134;49.646;8.560;2023-02-19T08:18:41;101079.13;;;10.10;93.74
34931;BME280;21134;49.646;8.560;2023-02-19T08:21:08;101093.66;;;10.16;92.32
34931;BME280;21134;49.646;8.560;2023-02-19T08:23:35;101094.41;;;10.07;93.36
34931;BME280;21134;49.646;8.560;2023-02-19T08:26:01;101104.69;;;10.09;93.72
34931;BME280;21134;49.646;8.560;2023-02-19T08:28:29;101101.34;;;10.17;91.84
34931;BME280;21134;49.646;8.560;2023-02-19T08:30:59;101112.59;;;10.29;91.25
34931;BME280;21134;49.646;8.560;2023-02-19T08:33:26;101116.88;;;10.31;90.11
34931;BME280;21134;49.646;8.560;2023-02-19T08:35:53;101122.88;;;10.36;90.06
34931;BME280;21134;49.646;8.560;2023-02-19T08:38:20;101124.72;;;10.48;89.27
34931;BME280;21134;49.646;8.560;2023-02-19T08:40:46;101129.09;;;10.61;88.21
34931;BME280;21134;49.646;8.560;2023-02-19T08:43:14;101132.50;;;10.62;88.39
34931;BME280;21134;49.646;8.560;2023-02-19T08:45:43;101138.50;;;10.65;87.93
34931;BME280;21134;49.646;8.560;2023-02-19T08:48:11;101148.88;;;10.79;85.87
34931;BME280;21134;49.646;8.560;2023-02-19T08:50:38;101155.75;;;10.82;85.28
34931;BME280;21134;49.646;8.560;2023-02-19T08:53:06;101144.72;;;10.89;83.99
34931;BME280;21134;49.646;8.560;2023-02-19T08:55:32;101153.22;;;10.88;84.74
34931;BME280;21134;49.646;8.560;2023-02-19T08:57:59;101156.50;;;10.73;86.46
34931;BME280;21134;49.646;8.560;2023-02-19T09:00:25;101159.09;;;10.76;85.52
34931;BME280;21134;49.646;8.560;2023-02-19T09:02:52;101160.75;;;10.69;85.64
34931;BME280;21134;49.646;8.560;2023-02-19T09:05:19;101177.84;;;10.75;85.43
34931;BME280;21134;49.646;8.560;2023-02-19T09:07:45;101177.03;;;10.76;85.09
34931;BME280;21134;49.646;8.560;2023-02-19T09:10:13;101176.25;;;10.85;84.18
34931;BME280;21134;49.646;8.560;2023-02-19T09:12:40;101176.19;;;10.80;85.10
34931;BME280;21134;49.646;8.560;2023-02-19T09:15:07;101170.31;;;10.93;83.32
34931;BME280;21134;49.646;8.560;2023-02-19T09:17:34;101176.34;;;10.96;83.78
34931;BME280;21134;49.646;8.560;2023-02-19T09:20:00;101178.84;;;10.91;84.93
34931;BME280;21134;49.646;8.560;2023-02-19T09:22:28;101185.69;;;10.93;84.17
34931;BME280;21134;49.646;8.560;2023-02-19T09:24:54;101182.25;;;10.90;85.50
34931;BME280;21134;49.646;8.560;2023-02-19T09:27:22;101187.41;;;10.93;85.85
34931;BME280;21134;49.646;8.560;2023-02-19T09:29:48;101186.44;;;10.80;87.46
34931;BME280;21134;49.646;8.560;2023-02-19T09:32:15;101194.97;;;10.79;87.29
34931;BME280;21134;49.646;8.560;2023-02-19T09:34:41;101194.16;;;10.85;86.84
34931;BME280;21134;49.646;8.560;2023-02-19T09:37:08;101203.59;;;10.90;86.25
34931;BME280;21134;49.646;8.560;2023-02-19T09:39:35;101196.81;;;10.96;86.41
34931;BME280;21134;49.646;8.560;2023-02-19T09:42:03;101196.88;;;11.02;84.36
34931;BME280;21134;49.646;8.560;2023-02-19T09:44:38;101207.19;;;11.11;84.18
34931;BME280;21134;49.646;8.560;2023-02-19T09:47:12;101208.97;;;11.23;82.48
34931;BME280;21134;49.646;8.560;2023-02-19T09:49:42;101203.88;;;11.24;82.11
34931;BME280;21134;49.646;8.560;2023-02-19T09:52:18;101195.34;;;11.25;83.54
34931;BME280;21134;49.646;8.560;2023-02-19T09:54:47;101189.41;;;11.31;82.20
34931;BME280;21134;49.646;8.560;2023-02-19T09:57:15;101199.75;;;11.43;81.04
34931;BME280;21134;49.646;8.560;2023-02-19T09:59:45;101180.94;;;11.41;81.41
34931;BME280;21134;49.646;8.560;2023-02-19T10:02:15;101197.25;;;11.52;81.81
34931;BME280;21134;49.646;8.560;2023-02-19T10:04:44;101192.25;;;11.74;81.79
34931;BME280;21134;49.646;8.560;2023-02-19T10:07:12;101200.91;;;11.93;78.23
34931;BME280;21134;49.646;8.560;2023-02-19T10:09:39;101209.44;;;11.85;79.53
34931;BME280;21134;49.646;8.560;2023-02-19T10:12:13;101193.16;;;11.82;79.07
34931;BME280;21134;49.646;8.560;2023-02-19T10:14:45;101194.88;;;11.81;78.92
34931;BME280;21134;49.646;8.560;2023-02-19T10:17:24;101211.09;;;11.83;79.84
34931;BME280;21134;49.646;8.560;2023-02-19T10:19:51;101205.09;;;11.83;79.91
34931;BME280;21134;49.646;8.560;2023-02-19T10:22:19;101214.59;;;11.87;79.83
34931;BME280;21134;49.646;8.560;2023-02-19T10:24:49;101201.81;;;12.02;77.74
34931;BME280;21134;49.646;8.560;2023-02-19T10:27:17;101210.38;;;12.00;79.00
34931;BME280;21134;49.646;8.560;2023-02-19T10:29:46;101211.28;;;12.22;77.17
34931;BME280;21134;49.646;8.560;2023-02-19T10:32:15;101208.72;;;12.17;77.87
34931;BME280;21134;49.646;8.560;2023-02-19T10:34:45;101218.13;;;12.14;77.82
34931;BME280;21134;49.646;8.560;2023-02-19T10:37:14;101215.56;;;12.17;75.74
34931;BME280;21134;49.646;8.560;2023-02-19T10:39:42;101216.41;;;12.13;75.26
34931;BME280;21134;49.646;8.560;2023-02-19T10:42:15;101219.84;;;12.18;75.37
34931;BME280;21134;49.646;8.560;2023-02-19T10:44:46;101209.66;;;12.36;77.21
34931;BME280;21134;49.646;8.560;2023-02-19T10:47:17;101222.56;;;12.54;75.04
34931;BME280;21134;49.646;8.560;2023-02-19T10:49:44;101226.03;;;12.93;74.19
34931;BME280;21134;49.646;8.560;2023-02-19T10:52:15;101223.47;;;12.84;71.21
34931;BME280;21134;49.646;8.560;2023-02-19T10:54:44;101226.03;;;12.84;71.94
34931;BME280;21134;49.646;8.560;2023-02-19T10:57:27;101224.34;;;12.86;73.44
34931;BME280;21134;49.646;8.560;2023-02-19T11:00:00;101242.34;;;13.12;71.46
34931;BME280;21134;49.646;8.560;2023-02-19T11:02:29;101246.63;;;13.06;70.03
34931;BME280;21134;49.646;8.560;2023-02-19T11:05:15;101245.75;;;13.08;70.82
34931;BME280;21134;49.646;8.560;2023-02-19T11:07:44;101256.03;;;12.99;72.28
34931;BME280;21134;49.646;8.560;2023-02-19T11:10:20;101257.72;;;12.91;71.81
34931;BME280;21134;49.646;8.560;2023-02-19T11:12:50;101252.56;;;12.95;71.25
34931;BME280;21134;49.646;8.560;2023-02-19T11:15:22;101247.44;;;12.94;72.22
34931;BME280;21134;49.646;8.560;2023-02-19T11:17:59;101250.03;;;12.89;70.62
34931;BME280;21134;49.646;8.560;2023-02-19T11:20:34;101249.16;;;12.93;72.11
34931;BME280;21134;49.646;8.560;2023-02-19T11:23:12;101250.88;;;12.94;71.89
34931;BME280;21134;49.646;8.560;2023-02-19T11:25:44;101255.16;;;13.01;70.38
34931;BME280;21134;49.646;8.560;2023-02-19T11:28:21;101260.28;;;13.08;70.84
34931;BME280;21134;49.646;8.560;2023-02-19T11:30:50;101262.88;;;13.23;70.20
34931;BME280;21134;49.646;8.560;2023-02-19T11:33:23;101249.22;;;13.42;69.24
34931;BME280;21134;49.646;8.560;2023-02-19T11:35:54;101240.66;;;13.37;66.96
34931;BME280;21134;49.646;8.560;2023-02-19T11:38:24;101244.06;;;13.30;68.23
34931;BME280;21134;49.646;8.560;2023-02-19T11:40:56;101239.78;;;13.32;68.58
34931;BME280;21134;49.646;8.560;2023-02-19T11:43:38;101242.38;;;13.31;68.41
34931;BME280;21134;49.646;8.560;2023-02-19T11:46:15;101245.78;;;13.39;68.33
34931;BME280;21134;49.646;8.560;2023-02-19T11:48:51;101238.06;;;13.49;67.95
34931;BME280;21134;49.646;8.560;2023-02-19T11:54:19;101253.47;;;13.20;68.10
34931;BME280;21134;49.646;8.560;2023-02-19T11:56:50;101244.03;;;13.13;68.72
34931;BME280;21134;49.646;8.560;2023-02-19T11:59:21;101261.97;;;12.92;71.40
34931;BME280;21134;49.646;8.560;2023-02-19T12:02:19;101270.53;;;12.74;78.55
34931;BME280;21134;49.646;8.560;2023-02-19T12:05:17;101266.13;;;12.36;82.70
34931;BME280;21134;49.646;8.560;2023-02-19T12:11:08;101273.72;;;12.18;81.73
34931;BME280;21134;49.646;8.560;2023-02-19T12:13:54;101260.03;;;12.13;81.88
34931;BME280;21134;49.646;8.560;2023-02-19T12:16:28;101263.47;;;12.16;82.58
34931;BME280;21134;49.646;8.560;2023-02-19T12:19:16;101268.53;;;12.08;84.08
34931;BME280;21134;49.646;8.560;2023-02-19T12:22:05;101255.81;;;12.22;76.84
34931;BME280;21134;49.646;8.560;2023-02-19T12:27:34;101273.75;;;12.24;76.43
34931;BME280;21134;49.646;8.560;2023-02-19T12:30:20;101263.47;;;12.19;73.55
34931;BME280;21134;49.646;8.560;2023-02-19T12:33:11;101252.28;;;12.08;76.63
34931;BME280;21134;49.646;8.560;2023-02-19T12:35:57;101254.91;;;12.19;75.86
34931;BME280;21134;49.646;8.560;2023-02-19T12:38:29;101255.03;;;12.52;74.52
34931;BME280;21134;49.646;8.560;2023-02-19T12:41:26;101252.53;;;12.78;73.23
34931;BME280;21134;49.646;8.560;2023-02-19T12:43:59;101250.88;;;13.07;72.75
34931;BME280;21134;49.646;8.560;2023-02-19T12:46:30;101240.59;;;13.20;73.65
34931;BME280;21134;49.646;8.560;2023-02-19T12:49:01;101238.94;;;13.38;70.21
34931;BME280;21134;49.646;8.560;2023-02-19T12:51:38;101246.66;;;13.38;70.46
34931;BME280;21134;49.646;8.560;2023-02-19T12:54:12;101247.50;;;13.29;70.53
34931;BME280;21134;49.646;8.560;2023-02-19T12:56:43;101252.59;;;13.23;70.07
34931;BME280;21134;49.646;8.560;2023-02-19T12:59:14;101250.94;;;13.28;69.08
34931;BME280;21134;49.646;8.560;2023-02-19T13:01:50;101250.06;;;13.29;67.48
34931;BME280;21134;49.646;8.560;2023-02-19T13:04:24;101243.19;;;13.16;69.09
34931;BME280;21134;49.646;8.560;2023-02-19T13:06:57;101247.47;;;13.20;67.24
34931;BME280;21134;49.646;8.560;2023-02-19T13:09:28;101244.06;;;13.12;66.99
34931;BME280;21134;49.646;8.560;2023-02-19T13:12:00;101248.31;;;13.16;66.32
34931;BME280;21134;49.646;8.560;2023-02-19T13:14:30;101256.03;;;13.07;67.79
34931;BME280;21134;49.646;8.560;2023-02-19T13:17:01;101226.91;;;13.06;67.34
34931;BME280;21134;49.646;8.560;2023-02-19T13:19:33;101236.31;;;12.99;67.19
34931;BME280;21134;49.646;8.560;2023-02-19T13:22:09;101241.44;;;13.01;67.52